sensor_id;sensor_type;location;lat;lon;timestamp;P1;durP1;ratioP1;P2;durP2;ratioP2
67514;SDS011;60646;55.802;37.032;2022-12-18T00:01:16;7.82;;;3.90;;
67514;SDS011;60646;55.802;37.032;2022-12-18T00:03:43;7.95;;;3.90;;
67514;SDS011;60646;55.802;37.032;2022-12-18T00:06:10;6.65;;;3.15;;
67514;SDS011;60646;55.802;37.032;2022-12-18T00:08:40;6.78;;;3.50;;
67514;SDS011;60646;55.802;37.032;2022-12-18T00:11:07;7.45;;;3.55;;
67514;SDS011;60646;55.802;37.032;2022-12-18T00:13:36;7.63;;;3.70;;
67514;SDS011;60646;55.802;37.032;2022-12-18T00:16:06;8.93;;;4.07;;
67514;SDS011;60646;55.802;37.032;2022-12-18T00:18:35;8.30;;;3.50;;
67514;SDS011;60646;55.802;37.032;2022-12-18T00:21:02;8.85;;;3.75;;
67514;SDS011;60646;55.802;37.032;2022-12-18T00:23:32;8.50;;;3.75;;
67514;SDS011;60646;55.802;37.032;2022-12-18T00:25:59;9.75;;;4.40;;
67514;SDS011;60646;55.802;37.032;2022-12-18T00:28:28;7.40;;;3.60;;
67514;SDS011;60646;55.802;37.032;2022-12-18T00:31:09;9.50;;;3.83;;
67514;SDS011;60646;55.802;37.032;2022-12-18T00:33:38;9.70;;;3.70;;
67514;SDS011;60646;55.802;37.032;2022-12-18T00:36:05;7.43;;;3.42;;
67514;SDS011;60646;55.802;37.032;2022-12-18T00:38:33;9.05;;;3.83;;
67514;SDS011;60646;55.802;37.032;2022-12-18T00:40:59;5.22;;;2.67;;
67514;SDS011;60646;55.802;37.032;2022-12-18T00:43:25;6.90;;;3.28;;
67514;SDS011;60646;55.802;37.032;2022-12-18T00:45:52;5.03;;;2.90;;
67514;SDS011;60646;55.802;37.032;2022-12-18T00:48:18;9.60;;;3.95;;
67514;SDS011;60646;55.802;37.032;2022-12-18T00:50:44;8.85;;;3.65;;
67514;SDS011;60646;55.802;37.032;2022-12-18T00:53:09;9.23;;;3.85;;
67514;SDS011;60646;55.802;37.032;2022-12-18T00:55:37;6.25;;;3.20;;
67514;SDS011;60646;55.802;37.032;2022-12-18T00:58:04;5.28;;;3.00;;
67514;SDS011;60646;55.802;37.032;2022-12-18T01:00:30;7.18;;;3.42;;
67514;SDS011;60646;55.802;37.032;2022-12-18T01:02:55;5.95;;;3.33;;
67514;SDS011;60646;55.802;37.032;2022-12-18T01:05:21;8.25;;;4.00;;
67514;SDS011;60646;55.802;37.032;2022-12-18T01:07:47;5.65;;;3.38;;
67514;SDS011;60646;55.802;37.032;2022-12-18T01:10:13;7.45;;;3.88;;
67514;SDS011;60646;55.802;37.032;2022-12-18T01:12:39;6.22;;;3.10;;
67514;SDS011;60646;55.802;37.032;2022-12-18T01:15:05;7.45;;;3.78;;
67514;SDS011;60646;55.802;37.032;2022-12-18T01:17:32;7.78;;;3.95;;
67514;SDS011;60646;55.802;37.032;2022-12-18T01:19:59;6.53;;;3.33;;
67514;SDS011;60646;55.802;37.032;2022-12-18T01:22:25;7.13;;;3.72;;
67514;SDS011;60646;55.802;37.032;2022-12-18T01:24:51;5.88;;;2.78;;
67514;SDS011;60646;55.802;37.032;2022-12-18T01:27:20;6.32;;;3.00;;
67514;SDS011;60646;55.802;37.032;2022-12-18T01:29:46;7.63;;;3.40;;
67514;SDS011;60646;55.802;37.032;2022-12-18T01:32:12;7.70;;;3.30;;
67514;SDS011;60646;55.802;37.032;2022-12-18T01:34:38;6.55;;;3.00;;
67514;SDS011;60646;55.802;37.032;2022-12-18T01:37:04;5.65;;;2.85;;
67514;SDS011;60646;55.802;37.032;2022-12-18T01:39:30;6.78;;;3.50;;
67514;SDS011;60646;55.802;37.032;2022-12-18T01:41:57;7.32;;;3.38;;
67514;SDS011;60646;55.802;37.032;2022-12-18T01:47:20;7.28;;;3.25;;
67514;SDS011;60646;55.802;37.032;2022-12-18T01:49:47;6.10;;;3.00;;
67514;SDS011;60646;55.802;37.032;2022-12-18T01:52:13;5.22;;;2.75;;
67514;SDS011;60646;55.802;37.032;2022-12-18T01:54:40;6.82;;;3.03;;
67514;SDS011;60646;55.802;37.032;2022-12-18T01:57:06;5.40;;;2.75;;
67514;SDS011;60646;55.802;37.032;2022-12-18T01:59:32;5.43;;;3.00;;
67514;SDS011;60646;55.802;37.032;2022-12-18T02:01:59;8.15;;;3.78;;
67514;SDS011;60646;55.802;37.032;2022-12-18T02:04:27;7.00;;;3.67;;
67514;SDS011;60646;55.802;37.032;2022-12-18T02:09:48;6.07;;;3.40;;
67514;SDS011;60646;55.802;37.032;2022-12-18T02:12:39;7.32;;;3.25;;
67514;SDS011;60646;55.802;37.032;2022-12-18T02:17:56;5.95;;;2.70;;
67514;SDS011;60646;55.802;37.032;2022-12-18T02:20:29;6.30;;;2.85;;
67514;SDS011;60646;55.802;37.032;2022-12-18T02:28:20;6.85;;;2.88;;
67514;SDS011;60646;55.802;37.032;2022-12-18T02:30:49;5.47;;;2.20;;
67514;SDS011;60646;55.802;37.032;2022-12-18T02:33:18;6.68;;;2.80;;
67514;SDS011;60646;55.802;37.032;2022-12-18T02:35:46;5.13;;;2.70;;
67514;SDS011;60646;55.802;37.032;2022-12-18T02:38:13;6.20;;;2.80;;
67514;SDS011;60646;55.802;37.032;2022-12-18T02:40:43;5.55;;;2.58;;
67514;SDS011;60646;55.802;37.032;2022-12-18T02:43:15;5.93;;;3.38;;
67514;SDS011;60646;55.802;37.032;2022-12-18T02:45:48;6.47;;;3.20;;
67514;SDS011;60646;55.802;37.032;2022-12-18T02:48:18;6.45;;;2.95;;
67514;SDS011;60646;55.802;37.032;2022-12-18T02:50:51;6.13;;;3.03;;
67514;SDS011;60646;55.802;37.032;2022-12-18T02:56:12;5.60;;;2.60;;
67514;SDS011;60646;55.802;37.032;2022-12-18T02:58:47;4.18;;;2.25;;
67514;SDS011;60646;55.802;37.032;2022-12-18T03:01:36;5.53;;;2.53;;
67514;SDS011;60646;55.802;37.032;2022-12-18T03:04:19;5.97;;;2.67;;
67514;SDS011;60646;55.802;37.032;2022-12-18T03:07:18;5.65;;;2.58;;
67514;SDS011;60646;55.802;37.032;2022-12-18T03:09:48;5.43;;;3.10;;
67514;SDS011;60646;55.802;37.032;2022-12-18T03:12:18;4.57;;;2.35;;
67514;SDS011;60646;55.802;37.032;2022-12-18T03:15:00;5.88;;;2.83;;
67514;SDS011;60646;55.802;37.032;2022-12-18T03:17:31;5.68;;;3.22;;
67514;SDS011;60646;55.802;37.032;2022-12-18T03:20:00;4.60;;;2.35;;
67514;SDS011;60646;55.802;37.032;2022-12-18T03:22:32;6.55;;;3.38;;
67514;SDS011;60646;55.802;37.032;2022-12-18T03:25:03;5.10;;;2.70;;
67514;SDS011;60646;55.802;37.032;2022-12-18T03:27:32;5.93;;;2.88;;
67514;SDS011;60646;55.802;37.032;2022-12-18T03:30:07;8.70;;;2.60;;
67514;SDS011;60646;55.802;37.032;2022-12-18T03:32:47;5.10;;;2.43;;
67514;SDS011;60646;55.802;37.032;2022-12-18T03:35:16;7.05;;;2.70;;
67514;SDS011;60646;55.802;37.032;2022-12-18T03:38:05;7.15;;;2.85;;
67514;SDS011;60646;55.802;37.032;2022-12-18T03:40:43;6.53;;;2.47;;
67514;SDS011;60646;55.802;37.032;2022-12-18T03:43:32;4.93;;;2.63;;
67514;SDS011;60646;55.802;37.032;2022-12-18T03:46:50;4.78;;;2.50;;
67514;SDS011;60646;55.802;37.032;2022-12-18T03:49:11;6.82;;;3.00;;
67514;SDS011;60646;55.802;37.032;2022-12-18T03:51:57;4.47;;;2.22;;
67514;SDS011;60646;55.802;37.032;2022-12-18T03:54:28;4.85;;;2.50;;
67514;SDS011;60646;55.802;37.032;2022-12-18T03:57:07;4.70;;;2.70;;
67514;SDS011;60646;55.802;37.032;2022-12-18T03:59:40;4.75;;;2.40;;
67514;SDS011;60646;55.802;37.032;2022-12-18T04:02:08;4.63;;;2.22;;
67514;SDS011;60646;55.802;37.032;2022-12-18T04:04:35;3.92;;;2.20;;
67514;SDS011;60646;55.802;37.032;2022-12-18T04:07:03;5.20;;;2.60;;
67514;SDS011;60646;55.802;37.032;2022-12-18T04:09:32;4.50;;;2.28;;
67514;SDS011;60646;55.802;37.032;2022-12-18T04:12:00;6.60;;;2.70;;
67514;SDS011;60646;55.802;37.032;2022-12-18T04:14:26;6.10;;;2.30;;
67514;SDS011;60646;55.802;37.032;2022-12-18T04:16:55;4.70;;;2.70;;
67514;SDS011;60646;55.802;37.032;2022-12-18T04:19:27;4.70;;;2.38;;
67514;SDS011;60646;55.802;37.032;2022-12-18T04:21:53;5.25;;;2.45;;
67514;SDS011;60646;55.802;37.032;2022-12-18T04:24:19;4.70;;;2.70;;
67514;SDS011;60646;55.802;37.032;2022-12-18T04:26:56;4.68;;;2.40;;
67514;SDS011;60646;55.802;37.032;2022-12-18T04:29:26;6.95;;;3.00;;
67514;SDS011;60646;55.802;37.032;2022-12-18T04:31:52;3.50;;;1.88;;
67514;SDS011;60646;55.802;37.032;2022-12-18T04:34:19;5.03;;;2.65;;
67514;SDS011;60646;55.802;37.032;2022-12-18T04:36:49;7.22;;;2.63;;
67514;SDS011;60646;55.802;37.032;2022-12-18T04:39:15;4.65;;;2.50;;
67514;SDS011;60646;55.802;37.032;2022-12-18T04:41:42;6.47;;;2.38;;
67514;SDS011;60646;55.802;37.032;2022-12-18T04:44:08;4.07;;;2.25;;
67514;SDS011;60646;55.802;37.032;2022-12-18T04:46:34;5.65;;;2.80;;
67514;SDS011;60646;55.802;37.032;2022-12-18T04:49:00;4.13;;;2.30;;
67514;SDS011;60646;55.802;37.032;2022-12-18T04:51:26;4.28;;;2.40;;
67514;SDS011;60646;55.802;37.032;2022-12-18T04:53:51;5.45;;;2.67;;
67514;SDS011;60646;55.802;37.032;2022-12-18T04:56:17;5.82;;;2.35;;
67514;SDS011;60646;55.802;37.032;2022-12-18T04:58:44;4.85;;;2.40;;
67514;SDS011;60646;55.802;37.032;2022-12-18T05:01:10;4.18;;;2.03;;
67514;SDS011;60646;55.802;37.032;2022-12-18T05:03:37;3.53;;;2.00;;
67514;SDS011;60646;55.802;37.032;2022-12-18T05:06:04;4.60;;;2.25;;
67514;SDS011;60646;55.802;37.032;2022-12-18T05:08:31;7.50;;;3.30;;
67514;SDS011;60646;55.802;37.032;2022-12-18T05:11:04;4.63;;;2.58;;
67514;SDS011;60646;55.802;37.032;2022-12-18T05:13:31;5.65;;;3.15;;
67514;SDS011;60646;55.802;37.032;2022-12-18T05:15:57;5.35;;;2.80;;
67514;SDS011;60646;55.802;37.032;2022-12-18T05:18:23;4.25;;;2.50;;
67514;SDS011;60646;55.802;37.032;2022-12-18T05:20:50;4.97;;;2.58;;
67514;SDS011;60646;55.802;37.032;2022-12-18T05:23:17;5.13;;;2.53;;
67514;SDS011;60646;55.802;37.032;2022-12-18T05:25:51;4.55;;;2.72;;
67514;SDS011;60646;55.802;37.032;2022-12-18T05:28:18;4.57;;;2.60;;
67514;SDS011;60646;55.802;37.032;2022-12-18T05:30:48;4.60;;;2.47;;
67514;SDS011;60646;55.802;37.032;2022-12-18T05:33:18;6.47;;;2.92;;
67514;SDS011;60646;55.802;37.032;2022-12-18T05:35:44;4.80;;;2.38;;
67514;SDS011;60646;55.802;37.032;2022-12-18T05:38:15;4.68;;;2.53;;
67514;SDS011;60646;55.802;37.032;2022-12-18T05:40:41;5.95;;;2.65;;
67514;SDS011;60646;55.802;37.032;2022-12-18T05:43:09;4.43;;;2.42;;
67514;SDS011;60646;55.802;37.032;2022-12-18T05:45:38;6.40;;;2.42;;
67514;SDS011;60646;55.802;37.032;2022-12-18T05:48:04;5.13;;;2.35;;
67514;SDS011;60646;55.802;37.032;2022-12-18T05:50:33;7.88;;;2.60;;
67514;SDS011;60646;55.802;37.032;2022-12-18T05:53:01;4.38;;;2.15;;
67514;SDS011;60646;55.802;37.032;2022-12-18T05:55:27;5.30;;;2.67;;
67514;SDS011;60646;55.802;37.032;2022-12-18T05:58:12;4.00;;;2.17;;
67514;SDS011;60646;55.802;37.032;2022-12-18T06:00:40;3.22;;;2.20;;
67514;SDS011;60646;55.802;37.032;2022-12-18T06:03:10;6.25;;;2.70;;
67514;SDS011;60646;55.802;37.032;2022-12-18T06:05:38;3.97;;;2.30;;
67514;SDS011;60646;55.802;37.032;2022-12-18T06:08:06;4.38;;;2.80;;
67514;SDS011;60646;55.802;37.032;2022-12-18T06:10:51;6.18;;;2.28;;
67514;SDS011;60646;55.802;37.032;2022-12-18T06:13:18;4.95;;;2.20;;
67514;SDS011;60646;55.802;37.032;2022-12-18T06:15:45;3.92;;;2.50;;
67514;SDS011;60646;55.802;37.032;2022-12-18T06:18:11;4.63;;;2.20;;
67514;SDS011;60646;55.802;37.032;2022-12-18T06:20:36;5.95;;;2.60;;
67514;SDS011;60646;55.802;37.032;2022-12-18T06:23:06;12.20;;;2.58;;
67514;SDS011;60646;55.802;37.032;2022-12-18T06:25:36;6.10;;;2.90;;
67514;SDS011;60646;55.802;37.032;2022-12-18T06:28:03;5.90;;;2.80;;
67514;SDS011;60646;55.802;37.032;2022-12-18T06:30:29;6.55;;;2.88;;
67514;SDS011;60646;55.802;37.032;2022-12-18T06:32:55;4.95;;;2.13;;
67514;SDS011;60646;55.802;37.032;2022-12-18T06:35:20;4.75;;;2.65;;
67514;SDS011;60646;55.802;37.032;2022-12-18T06:37:46;6.65;;;2.70;;
67514;SDS011;60646;55.802;37.032;2022-12-18T06:40:12;4.22;;;2.20;;
67514;SDS011;60646;55.802;37.032;2022-12-18T06:42:38;6.72;;;2.90;;
67514;SDS011;60646;55.802;37.032;2022-12-18T06:45:04;3.95;;;2.08;;
67514;SDS011;60646;55.802;37.032;2022-12-18T06:47:30;5.35;;;2.40;;
67514;SDS011;60646;55.802;37.032;2022-12-18T06:49:55;4.68;;;2.20;;
67514;SDS011;60646;55.802;37.032;2022-12-18T06:52:21;4.18;;;2.22;;
67514;SDS011;60646;55.802;37.032;2022-12-18T06:54:47;4.07;;;2.33;;
67514;SDS011;60646;55.802;37.032;2022-12-18T06:57:23;4.60;;;2.28;;
67514;SDS011;60646;55.802;37.032;2022-12-18T06:59:49;5.10;;;2.47;;
67514;SDS011;60646;55.802;37.032;2022-12-18T07:02:25;5.63;;;2.60;;
67514;SDS011;60646;55.802;37.032;2022-12-18T07:04:51;4.57;;;2.38;;
67514;SDS011;60646;55.802;37.032;2022-12-18T07:07:19;5.68;;;2.88;;
67514;SDS011;60646;55.802;37.032;2022-12-18T07:09:49;4.68;;;2.70;;
67514;SDS011;60646;55.802;37.032;2022-12-18T07:12:16;5.47;;;2.45;;
67514;SDS011;60646;55.802;37.032;2022-12-18T07:14:42;4.55;;;2.03;;
67514;SDS011;60646;55.802;37.032;2022-12-18T07:17:12;4.75;;;2.30;;
67514;SDS011;60646;55.802;37.032;2022-12-18T07:19:42;4.60;;;2.15;;
67514;SDS011;60646;55.802;37.032;2022-12-18T07:22:08;3.80;;;2.25;;
67514;SDS011;60646;55.802;37.032;2022-12-18T07:24:34;6.90;;;2.80;;
67514;SDS011;60646;55.802;37.032;2022-12-18T07:27:00;3.90;;;2.13;;
67514;SDS011;60646;55.802;37.032;2022-12-18T07:29:26;5.53;;;2.30;;
67514;SDS011;60646;55.802;37.032;2022-12-18T07:31:52;5.57;;;2.70;;
67514;SDS011;60646;55.802;37.032;2022-12-18T07:34:18;5.07;;;2.28;;
67514;SDS011;60646;55.802;37.032;2022-12-18T07:36:44;3.85;;;2.20;;
67514;SDS011;60646;55.802;37.032;2022-12-18T07:39:11;5.38;;;2.60;;
67514;SDS011;60646;55.802;37.032;2022-12-18T07:41:37;4.65;;;2.90;;
67514;SDS011;60646;55.802;37.032;2022-12-18T07:44:11;5.20;;;2.60;;
67514;SDS011;60646;55.802;37.032;2022-12-18T07:46:38;6.65;;;2.70;;
67514;SDS011;60646;55.802;37.032;2022-12-18T07:49:03;4.53;;;2.47;;
67514;SDS011;60646;55.802;37.032;2022-12-18T07:51:29;4.03;;;1.90;;
67514;SDS011;60646;55.802;37.032;2022-12-18T07:53:56;4.75;;;2.13;;
67514;SDS011;60646;55.802;37.032;2022-12-18T07:56:22;6.68;;;2.72;;
67514;SDS011;60646;55.802;37.032;2022-12-18T07:58:47;5.57;;;2.40;;
67514;SDS011;60646;55.802;37.032;2022-12-18T08:01:13;5.10;;;2.33;;
67514;SDS011;60646;55.802;37.032;2022-12-18T08:03:39;3.92;;;1.95;;
67514;SDS011;60646;55.802;37.032;2022-12-18T08:06:07;6.65;;;2.60;;
67514;SDS011;60646;55.802;37.032;2022-12-18T08:08:34;4.35;;;2.17;;
67514;SDS011;60646;55.802;37.032;2022-12-18T08:11:00;6.15;;;2.80;;
67514;SDS011;60646;55.802;37.032;2022-12-18T08:13:26;4.55;;;2.08;;
67514;SDS011;60646;55.802;37.032;2022-12-18T08:15:56;4.93;;;2.53;;
67514;SDS011;60646;55.802;37.032;2022-12-18T08:18:27;4.38;;;2.10;;
67514;SDS011;60646;55.802;37.032;2022-12-18T08:21:10;5.22;;;2.10;;
67514;SDS011;60646;55.802;37.032;2022-12-18T08:23:49;4.45;;;2.20;;
67514;SDS011;60646;55.802;37.032;2022-12-18T08:26:53;3.95;;;2.13;;
67514;SDS011;60646;55.802;37.032;2022-12-18T08:29:27;4.82;;;1.92;;
67514;SDS011;60646;55.802;37.032;2022-12-18T08:31:53;5.15;;;2.58;;
67514;SDS011;60646;55.802;37.032;2022-12-18T08:34:19;4.03;;;2.13;;
67514;SDS011;60646;55.802;37.032;2022-12-18T08:36:45;5.35;;;2.17;;
67514;SDS011;60646;55.802;37.032;2022-12-18T08:39:11;3.80;;;2.22;;
67514;SDS011;60646;55.802;37.032;2022-12-18T08:41:36;4.45;;;2.15;;
67514;SDS011;60646;55.802;37.032;2022-12-18T08:44:02;4.15;;;2.10;;
67514;SDS011;60646;55.802;37.032;2022-12-18T08:46:46;3.72;;;2.10;;
67514;SDS011;60646;55.802;37.032;2022-12-18T08:49:12;5.35;;;1.92;;
67514;SDS011;60646;55.802;37.032;2022-12-18T08:51:38;4.03;;;2.05;;
67514;SDS011;60646;55.802;37.032;2022-12-18T08:54:05;5.13;;;2.20;;
67514;SDS011;60646;55.802;37.032;2022-12-18T08:56:33;3.63;;;1.75;;
67514;SDS011;60646;55.802;37.032;2022-12-18T08:58:59;3.38;;;1.83;;
67514;SDS011;60646;55.802;37.032;2022-12-18T09:01:25;5.22;;;2.33;;
67514;SDS011;60646;55.802;37.032;2022-12-18T09:03:51;3.97;;;1.98;;
67514;SDS011;60646;55.802;37.032;2022-12-18T09:06:20;4.75;;;2.08;;
67514;SDS011;60646;55.802;37.032;2022-12-18T09:09:06;4.25;;;2.30;;
67514;SDS011;60646;55.802;37.032;2022-12-18T09:11:32;4.10;;;2.13;;
67514;SDS011;60646;55.802;37.032;2022-12-18T09:14:02;3.92;;;2.15;;
67514;SDS011;60646;55.802;37.032;2022-12-18T09:16:28;3.53;;;2.00;;
67514;SDS011;60646;55.802;37.032;2022-12-18T09:18:55;7.78;;;2.40;;
67514;SDS011;60646;55.802;37.032;2022-12-18T09:21:43;4.13;;;1.95;;
67514;SDS011;60646;55.802;37.032;2022-12-18T09:24:11;4.22;;;1.88;;
67514;SDS011;60646;55.802;37.032;2022-12-18T09:26:38;4.22;;;2.30;;
67514;SDS011;60646;55.802;37.032;2022-12-18T09:29:04;4.18;;;2.00;;
67514;SDS011;60646;55.802;37.032;2022-12-18T09:31:32;3.92;;;2.03;;
67514;SDS011;60646;55.802;37.032;2022-12-18T09:34:01;3.33;;;2.00;;
67514;SDS011;60646;55.802;37.032;2022-12-18T09:36:27;3.40;;;1.90;;
67514;SDS011;60646;55.802;37.032;2022-12-18T09:39:02;3.80;;;2.10;;
67514;SDS011;60646;55.802;37.032;2022-12-18T09:41:45;4.60;;;1.85;;
67514;SDS011;60646;55.802;37.032;2022-12-18T09:49:48;3.78;;;1.90;;
67514;SDS011;60646;55.802;37.032;2022-12-18T09:52:19;3.22;;;1.70;;
67514;SDS011;60646;55.802;37.032;2022-12-18T09:58:02;3.72;;;1.77;;
67514;SDS011;60646;55.802;37.032;2022-12-18T10:00:32;2.97;;;1.83;;
67514;SDS011;60646;55.802;37.032;2022-12-18T10:02:59;5.30;;;2.00;;
67514;SDS011;60646;55.802;37.032;2022-12-18T10:05:32;3.40;;;1.80;;
67514;SDS011;60646;55.802;37.032;2022-12-18T10:10:51;2.72;;;1.73;;
67514;SDS011;60646;55.802;37.032;2022-12-18T10:21:32;3.08;;;1.50;;
67514;SDS011;60646;55.802;37.032;2022-12-18T10:24:08;5.25;;;1.90;;
67514;SDS011;60646;55.802;37.032;2022-12-18T10:26:46;3.03;;;1.65;;
67514;SDS011;60646;55.802;37.032;2022-12-18T10:29:13;4.45;;;2.20;;
67514;SDS011;60646;55.802;37.032;2022-12-18T10:31:40;2.92;;;1.58;;
67514;SDS011;60646;55.802;37.032;2022-12-18T10:34:09;3.30;;;2.00;;
67514;SDS011;60646;55.802;37.032;2022-12-18T10:36:36;3.28;;;1.73;;
67514;SDS011;60646;55.802;37.032;2022-12-18T10:39:19;4.03;;;1.92;;
67514;SDS011;60646;55.802;37.032;2022-12-18T10:41:50;3.10;;;1.90;;
67514;SDS011;60646;55.802;37.032;2022-12-18T10:44:23;4.88;;;1.85;;
67514;SDS011;60646;55.802;37.032;2022-12-18T10:47:14;3.65;;;1.60;;
67514;SDS011;60646;55.802;37.032;2022-12-18T10:49:51;4.13;;;1.90;;
67514;SDS011;60646;55.802;37.032;2022-12-18T10:52:21;3.85;;;1.83;;
67514;SDS011;60646;55.802;37.032;2022-12-18T10:54:52;4.85;;;2.40;;
67514;SDS011;60646;55.802;37.032;2022-12-18T11:00:29;3.15;;;1.70;;
67514;SDS011;60646;55.802;37.032;2022-12-18T11:02:55;4.55;;;2.03;;
67514;SDS011;60646;55.802;37.032;2022-12-18T11:08:01;4.28;;;1.60;;
67514;SDS011;60646;55.802;37.032;2022-12-18T11:10:28;4.15;;;2.20;;
67514;SDS011;60646;55.802;37.032;2022-12-18T11:13:17;3.45;;;1.75;;
67514;SDS011;60646;55.802;37.032;2022-12-18T11:15:46;3.42;;;1.73;;
67514;SDS011;60646;55.802;37.032;2022-12-18T11:18:16;2.80;;;1.60;;
67514;SDS011;60646;55.802;37.032;2022-12-18T11:20:53;4.28;;;1.60;;
67514;SDS011;60646;55.802;37.032;2022-12-18T11:23:23;2.50;;;1.40;;
67514;SDS011;60646;55.802;37.032;2022-12-18T11:25:50;4.10;;;1.60;;
67514;SDS011;60646;55.802;37.032;2022-12-18T11:28:29;3.38;;;1.70;;
67514;SDS011;60646;55.802;37.032;2022-12-18T11:34:00;2.55;;;1.38;;
67514;SDS011;60646;55.802;37.032;2022-12-18T11:36:49;2.88;;;1.42;;
67514;SDS011;60646;55.802;37.032;2022-12-18T11:42:03;4.38;;;1.98;;
67514;SDS011;60646;55.802;37.032;2022-12-18T11:44:45;4.28;;;1.77;;
67514;SDS011;60646;55.802;37.032;2022-12-18T11:47:18;3.92;;;1.95;;
67514;SDS011;60646;55.802;37.032;2022-12-18T11:50:03;3.53;;;1.83;;
67514;SDS011;60646;55.802;37.032;2022-12-18T11:55:10;3.25;;;1.98;;
67514;SDS011;60646;55.802;37.032;2022-12-18T12:00:25;5.43;;;2.20;;
67514;SDS011;60646;55.802;37.032;2022-12-18T12:03:11;4.28;;;1.88;;
67514;SDS011;60646;55.802;37.032;2022-12-18T12:08:42;4.72;;;2.20;;
67514;SDS011;60646;55.802;37.032;2022-12-18T12:11:23;8.82;;;2.55;;
67514;SDS011;60646;55.802;37.032;2022-12-18T12:14:21;5.90;;;2.72;;
67514;SDS011;60646;55.802;37.032;2022-12-18T12:17:03;8.32;;;3.08;;
67514;SDS011;60646;55.802;37.032;2022-12-18T12:28:06;11.20;;;3.55;;
67514;SDS011;60646;55.802;37.032;2022-12-18T12:30:58;9.80;;;3.85;;
67514;SDS011;60646;55.802;37.032;2022-12-18T12:38:50;12.85;;;4.88;;
67514;SDS011;60646;55.802;37.032;2022-12-18T12:41:22;10.93;;;3.78;;
67514;SDS011;60646;55.802;37.032;2022-12-18T12:44:11;11.32;;;3.83;;
67514;SDS011;60646;55.802;37.032;2022-12-18T12:46:40;10.13;;;4.00;;
67514;SDS011;60646;55.802;37.032;2022-12-18T12:49:11;10.07;;;4.15;;
67514;SDS011;60646;55.802;37.032;2022-12-18T12:51:45;9.38;;;3.70;;
67514;SDS011;60646;55.802;37.032;2022-12-18T12:54:21;10.48;;;3.50;;
67514;SDS011;60646;55.802;37.032;2022-12-18T12:56:59;6.97;;;2.80;;
67514;SDS011;60646;55.802;37.032;2022-12-18T12:59:36;10.55;;;3.65;;
67514;SDS011;60646;55.802;37.032;2022-12-18T13:02:39;9.63;;;3.65;;
67514;SDS011;60646;55.802;37.032;2022-12-18T13:08:09;8.73;;;3.42;;
67514;SDS011;60646;55.802;37.032;2022-12-18T13:10:37;8.60;;;2.97;;
67514;SDS011;60646;55.802;37.032;2022-12-18T13:13:08;7.75;;;3.50;;
67514;SDS011;60646;55.802;37.032;2022-12-18T13:15:42;8.35;;;3.10;;
67514;SDS011;60646;55.802;37.032;2022-12-18T13:20:48;6.70;;;2.80;;
67514;SDS011;60646;55.802;37.032;2022-12-18T13:23:26;6.68;;;2.60;;
67514;SDS011;60646;55.802;37.032;2022-12-18T13:29:40;6.13;;;2.70;;
67514;SDS011;60646;55.802;37.032;2022-12-18T13:32:18;5.13;;;2.17;;
67514;SDS011;60646;55.802;37.032;2022-12-18T13:34:46;5.03;;;1.92;;
67514;SDS011;60646;55.802;37.032;2022-12-18T13:39:56;5.72;;;2.05;;
67514;SDS011;60646;55.802;37.032;2022-12-18T13:42:35;4.05;;;1.90;;
67514;SDS011;60646;55.802;37.032;2022-12-18T13:45:35;5.03;;;2.10;;
67514;SDS011;60646;55.802;37.032;2022-12-18T13:48:20;2.97;;;1.60;;
67514;SDS011;60646;55.802;37.032;2022-12-18T13:50:49;3.85;;;1.63;;
67514;SDS011;60646;55.802;37.032;2022-12-18T13:55:58;2.80;;;1.58;;
67514;SDS011;60646;55.802;37.032;2022-12-18T13:58:24;5.13;;;2.00;;
67514;SDS011;60646;55.802;37.032;2022-12-18T14:00:50;3.42;;;1.77;;
67514;SDS011;60646;55.802;37.032;2022-12-18T14:03:22;5.88;;;2.10;;
67514;SDS011;60646;55.802;37.032;2022-12-18T14:05:52;3.95;;;2.10;;
67514;SDS011;60646;55.802;37.032;2022-12-18T14:08:21;3.38;;;1.70;;
67514;SDS011;60646;55.802;37.032;2022-12-18T14:10:47;3.53;;;1.70;;
67514;SDS011;60646;55.802;37.032;2022-12-18T14:13:23;3.78;;;2.35;;
67514;SDS011;60646;55.802;37.032;2022-12-18T14:15:54;3.33;;;1.83;;
67514;SDS011;60646;55.802;37.032;2022-12-18T14:18:24;5.18;;;2.50;;
67514;SDS011;60646;55.802;37.032;2022-12-18T14:21:02;3.08;;;1.80;;
67514;SDS011;60646;55.802;37.032;2022-12-18T14:34:31;4.15;;;1.65;;
67514;SDS011;60646;55.802;37.032;2022-12-18T14:36:58;3.10;;;1.60;;
67514;SDS011;60646;55.802;37.032;2022-12-18T14:39:27;3.80;;;1.67;;
67514;SDS011;60646;55.802;37.032;2022-12-18T14:41:58;2.90;;;1.70;;
67514;SDS011;60646;55.802;37.032;2022-12-18T14:44:24;5.20;;;2.58;;
67514;SDS011;60646;55.802;37.032;2022-12-18T14:46:49;3.40;;;1.83;;
67514;SDS011;60646;55.802;37.032;2022-12-18T14:49:32;5.90;;;1.77;;
67514;SDS011;60646;55.802;37.032;2022-12-18T14:52:00;5.88;;;2.30;;
67514;SDS011;60646;55.802;37.032;2022-12-18T14:54:45;3.45;;;2.00;;
67514;SDS011;60646;55.802;37.032;2022-12-18T14:57:18;6.00;;;2.08;;
67514;SDS011;60646;55.802;37.032;2022-12-18T14:59:48;4.53;;;2.30;;
67514;SDS011;60646;55.802;37.032;2022-12-18T15:02:25;5.90;;;2.70;;
67514;SDS011;60646;55.802;37.032;2022-12-18T15:05:00;6.55;;;2.33;;
67514;SDS011;60646;55.802;37.032;2022-12-18T15:07:39;4.88;;;2.65;;
67514;SDS011;60646;55.802;37.032;2022-12-18T15:13:23;5.70;;;2.00;;
67514;SDS011;60646;55.802;37.032;2022-12-18T15:23:20;5.55;;;2.15;;
67514;SDS011;60646;55.802;37.032;2022-12-18T15:26:05;5.18;;;2.38;;
67514;SDS011;60646;55.802;37.032;2022-12-18T15:28:49;5.05;;;2.35;;
67514;SDS011;60646;55.802;37.032;2022-12-18T15:31:32;4.50;;;2.65;;
67514;SDS011;60646;55.802;37.032;2022-12-18T15:34:09;6.90;;;2.78;;
67514;SDS011;60646;55.802;37.032;2022-12-18T15:37:21;6.50;;;2.67;;
67514;SDS011;60646;55.802;37.032;2022-12-18T15:39:48;4.50;;;2.13;;
67514;SDS011;60646;55.802;37.032;2022-12-18T15:42:14;5.50;;;2.20;;
67514;SDS011;60646;55.802;37.032;2022-12-18T15:44:58;5.55;;;2.47;;
67514;SDS011;60646;55.802;37.032;2022-12-18T15:47:24;4.50;;;2.28;;
67514;SDS011;60646;55.802;37.032;2022-12-18T15:49:56;4.18;;;2.30;;
67514;SDS011;60646;55.802;37.032;2022-12-18T15:52:22;5.68;;;2.72;;
67514;SDS011;60646;55.802;37.032;2022-12-18T15:54:51;4.30;;;2.05;;
67514;SDS011;60646;55.802;37.032;2022-12-18T15:57:36;5.82;;;2.80;;
67514;SDS011;60646;55.802;37.032;2022-12-18T16:00:02;5.07;;;2.58;;
67514;SDS011;60646;55.802;37.032;2022-12-18T16:02:31;7.80;;;3.05;;
67514;SDS011;60646;55.802;37.032;2022-12-18T16:05:09;6.55;;;3.15;;
67514;SDS011;60646;55.802;37.032;2022-12-18T16:10:58;5.40;;;2.33;;
67514;SDS011;60646;55.802;37.032;2022-12-18T16:13:28;5.43;;;2.35;;
67514;SDS011;60646;55.802;37.032;2022-12-18T16:16:14;5.45;;;2.25;;
67514;SDS011;60646;55.802;37.032;2022-12-18T16:18:49;4.68;;;2.42;;
67514;SDS011;60646;55.802;37.032;2022-12-18T16:21:26;4.95;;;2.08;;
67514;SDS011;60646;55.802;37.032;2022-12-18T16:23:52;6.28;;;2.38;;
67514;SDS011;60646;55.802;37.032;2022-12-18T16:26:18;5.32;;;2.47;;
67514;SDS011;60646;55.802;37.032;2022-12-18T16:28:47;5.43;;;3.13;;
67514;SDS011;60646;55.802;37.032;2022-12-18T16:31:13;6.07;;;3.10;;
67514;SDS011;60646;55.802;37.032;2022-12-18T16:33:39;6.00;;;2.50;;
67514;SDS011;60646;55.802;37.032;2022-12-18T16:36:05;6.20;;;2.60;;
67514;SDS011;60646;55.802;37.032;2022-12-18T16:38:34;4.68;;;2.53;;
67514;SDS011;60646;55.802;37.032;2022-12-18T16:41:15;9.07;;;2.63;;
67514;SDS011;60646;55.802;37.032;2022-12-18T16:46:23;7.25;;;3.17;;
67514;SDS011;60646;55.802;37.032;2022-12-18T16:48:49;5.95;;;2.80;;